createdAt,value
2023-03-29T00:00:42.985Z,8.63
2023-03-29T00:03:10.797Z,8.66
2023-03-29T00:05:41.132Z,8.70
2023-03-29T00:08:09.157Z,8.71
2023-03-29T00:10:36.933Z,8.72
2023-03-29T00:13:04.731Z,8.76
2023-03-29T00:15:33.804Z,8.67
2023-03-29T00:18:01.577Z,8.79
2023-03-29T00:20:29.807Z,8.69
2023-03-29T00:22:57.662Z,8.66
2023-03-29T00:25:25.564Z,8.67
2023-03-29T00:27:53.243Z,8.69
2023-03-29T00:30:21.202Z,8.58
2023-03-29T00:32:51.390Z,8.75
2023-03-29T00:35:19.413Z,8.96
2023-03-29T00:37:51.057Z,8.80
2023-03-29T00:40:18.890Z,8.85
2023-03-29T00:42:46.633Z,8.85
2023-03-29T00:45:25.207Z,8.95
2023-03-29T00:47:57.084Z,8.83
2023-03-29T00:50:29.568Z,9.13
2023-03-29T00:53:02.504Z,9.16
2023-03-29T00:55:33.608Z,8.95
2023-03-29T00:58:02.710Z,8.81
2023-03-29T01:00:32.834Z,8.95
2023-03-29T01:03:07.130Z,8.98
2023-03-29T01:05:37.901Z,9.09
2023-03-29T01:08:07.927Z,9.03
2023-03-29T01:10:40.133Z,9.03
2023-03-29T01:13:10.484Z,8.83
2023-03-29T01:15:39.096Z,8.95
2023-03-29T01:18:08.906Z,9.06
2023-03-29T01:20:48.974Z,9.11
2023-03-29T01:23:33.563Z,8.92
2023-03-29T01:26:05.996Z,9.06
2023-03-29T01:28:37.327Z,8.97
2023-03-29T01:31:08.515Z,8.94
2023-03-29T01:33:40.082Z,8.91
2023-03-29T01:36:12.317Z,8.98
2023-03-29T01:38:43.186Z,9.14
2023-03-29T01:41:12.021Z,9.22
2023-03-29T01:43:45.984Z,9.18
2023-03-29T01:46:20.722Z,9.20
2023-03-29T01:48:53.153Z,9.07
2023-03-29T01:51:26.016Z,9.00
2023-03-29T01:53:57.476Z,8.99
2023-03-29T01:56:28.236Z,8.93
2023-03-29T01:59:00.865Z,9.07
2023-03-29T02:01:31.382Z,9.02
2023-03-29T02:04:01.801Z,8.92
2023-03-29T02:06:31.660Z,8.96
2023-03-29T02:08:59.845Z,9.02
2023-03-29T02:11:29.368Z,9.00
2023-03-29T02:13:58.615Z,9.04
2023-03-29T02:16:26.323Z,9.10
2023-03-29T02:18:56.338Z,9.15
2023-03-29T02:21:27.563Z,9.04
2023-03-29T02:23:56.842Z,9.03
2023-03-29T02:26:24.653Z,9.13
2023-03-29T02:28:52.799Z,9.00
2023-03-29T02:31:24.904Z,9.17
2023-03-29T02:33:55.946Z,9.15
2023-03-29T02:36:27.397Z,9.03
2023-03-29T02:38:55.930Z,9.00
2023-03-29T02:41:24.720Z,8.98
2023-03-29T02:43:52.542Z,8.88
2023-03-29T02:46:21.844Z,9.13
2023-03-29T02:48:51.309Z,9.23
2023-03-29T02:51:21.647Z,9.30
2023-03-29T02:53:53.199Z,9.29
2023-03-29T02:56:21.194Z,9.41
2023-03-29T02:58:48.861Z,9.26
2023-03-29T03:01:17.548Z,9.36
2023-03-29T03:03:47.982Z,9.38
2023-03-29T03:06:15.731Z,9.15
2023-03-29T03:08:44.156Z,9.29
2023-03-29T03:11:11.811Z,9.34
2023-03-29T03:13:39.476Z,9.37
2023-03-29T03:16:08.357Z,9.34
2023-03-29T03:18:36.062Z,9.38
2023-03-29T03:21:05.572Z,9.42
2023-03-29T03:23:33.267Z,9.30
2023-03-29T03:26:01.008Z,9.26
2023-03-29T03:28:28.772Z,9.35
2023-03-29T03:30:56.453Z,9.38
2023-03-29T03:33:24.188Z,9.32
2023-03-29T03:35:51.913Z,9.33
2023-03-29T03:38:20.994Z,9.36
2023-03-29T03:40:54.552Z,9.44
2023-03-29T03:43:22.428Z,9.42
2023-03-29T03:45:50.971Z,9.62
2023-03-29T03:48:18.885Z,9.52
2023-03-29T03:50:49.883Z,9.39
2023-03-29T03:53:18.137Z,9.51
2023-03-29T03:55:50.228Z,9.33
2023-03-29T03:58:19.032Z,9.53
2023-03-29T04:00:50.191Z,9.42
2023-03-29T04:03:18.846Z,9.43
2023-03-29T04:05:47.534Z,9.31
2023-03-29T04:08:15.874Z,9.19
2023-03-29T04:10:43.784Z,9.21
2023-03-29T04:13:12.977Z,9.23
2023-03-29T04:15:41.282Z,9.41
2023-03-29T04:18:09.144Z,9.37
2023-03-29T04:20:37.208Z,9.53
2023-03-29T04:23:05.032Z,9.36
2023-03-29T04:25:33.314Z,9.36
2023-03-29T04:28:01.773Z,9.14
2023-03-29T04:30:30.806Z,9.14
2023-03-29T04:32:58.593Z,9.36
2023-03-29T04:35:26.285Z,9.35
2023-03-29T04:37:54.574Z,9.11
2023-03-29T04:40:22.554Z,9.33
2023-03-29T04:42:51.707Z,9.18
2023-03-29T04:45:19.517Z,9.15
2023-03-29T04:47:49.009Z,9.19
2023-03-29T04:50:16.997Z,9.08
2023-03-29T04:52:45.569Z,9.08
2023-03-29T04:55:13.377Z,9.05
2023-03-29T04:57:41.242Z,9.17
2023-03-29T05:00:15.101Z,9.38
2023-03-29T05:02:44.351Z,9.37
2023-03-29T05:05:14.320Z,9.35
2023-03-29T05:07:41.977Z,9.40
2023-03-29T05:10:10.324Z,9.27
2023-03-29T05:12:38.486Z,9.33
2023-03-29T05:15:08.089Z,9.37
2023-03-29T05:17:36.006Z,9.42
2023-03-29T05:20:09.122Z,9.41
2023-03-29T05:22:38.329Z,9.28
2023-03-29T05:25:07.097Z,9.41
2023-03-29T05:27:35.204Z,9.45
2023-03-29T05:30:02.959Z,9.43
2023-03-29T05:32:31.013Z,9.54
2023-03-29T05:34:58.676Z,9.40
2023-03-29T05:37:26.604Z,9.38
2023-03-29T05:40:05.608Z,9.49
2023-03-29T05:42:34.098Z,9.48
2023-03-29T05:45:01.792Z,9.54
2023-03-29T05:47:29.559Z,9.53
2023-03-29T05:49:57.334Z,9.68
2023-03-29T05:52:25.196Z,9.63
2023-03-29T05:54:52.917Z,9.41
2023-03-29T05:57:22.767Z,9.52
2023-03-29T05:59:50.592Z,9.66
2023-03-29T06:02:18.788Z,9.72
2023-03-29T06:04:46.729Z,9.72
2023-03-29T06:07:14.753Z,9.88
2023-03-29T06:09:42.488Z,9.95
2023-03-29T06:12:10.518Z,9.90
2023-03-29T06:14:40.171Z,9.71
2023-03-29T06:17:07.940Z,9.72
2023-03-29T06:19:35.785Z,9.80
2023-03-29T06:22:03.739Z,9.81
2023-03-29T06:24:31.658Z,10.14
2023-03-29T06:26:59.429Z,10.08
2023-03-29T06:29:27.117Z,10.06
2023-03-29T06:31:57.143Z,10.44
2023-03-29T06:34:25.059Z,10.09
2023-03-29T06:36:52.976Z,10.16
2023-03-29T06:39:20.599Z,10.16
2023-03-29T06:41:49.028Z,10.12
2023-03-29T06:44:17.356Z,10.09
2023-03-29T06:46:45.492Z,10.07
2023-03-29T06:49:14.655Z,10.33
2023-03-29T06:51:42.460Z,10.21
2023-03-29T06:54:10.223Z,10.36
2023-03-29T06:56:37.918Z,10.52
2023-03-29T06:59:05.804Z,10.53
2023-03-29T07:01:34.641Z,10.62
2023-03-29T07:04:08.187Z,10.89
2023-03-29T07:06:39.047Z,10.77
2023-03-29T07:09:07.880Z,10.83
2023-03-29T07:11:36.325Z,10.71
2023-03-29T07:14:04.015Z,10.77
2023-03-29T07:16:32.688Z,10.70
2023-03-29T07:19:01.397Z,10.89
2023-03-29T07:21:29.446Z,11.19
2023-03-29T07:23:59.070Z,11.32
2023-03-29T07:26:29.037Z,11.20
2023-03-29T07:28:58.723Z,11.20
2023-03-29T07:31:26.616Z,11.23
2023-03-29T07:33:54.326Z,11.22
2023-03-29T07:36:22.061Z,11.31
2023-03-29T07:38:49.963Z,11.37
2023-03-29T07:41:19.015Z,11.55
2023-03-29T07:43:46.977Z,11.62
2023-03-29T07:46:14.696Z,11.59
2023-03-29T07:48:42.432Z,11.64
2023-03-29T07:51:10.154Z,11.56
2023-03-29T07:53:38.502Z,11.34
2023-03-29T07:56:06.804Z,11.61
2023-03-29T07:58:36.204Z,11.41
2023-03-29T08:01:04.135Z,11.63
2023-03-29T08:03:32.029Z,11.65
2023-03-29T08:06:02.848Z,11.84
2023-03-29T08:08:30.509Z,11.54
2023-03-29T08:10:58.576Z,11.54
2023-03-29T08:13:26.301Z,11.57
2023-03-29T08:15:55.610Z,11.50
2023-03-29T08:18:23.342Z,11.46
2023-03-29T08:20:51.737Z,11.77
2023-03-29T08:23:19.516Z,12.12
2023-03-29T08:25:47.360Z,12.27
2023-03-29T08:28:15.050Z,12.41
2023-03-29T08:30:43.090Z,12.62
2023-03-29T08:33:12.259Z,12.79
2023-03-29T08:35:40.016Z,12.72
2023-03-29T08:38:08.313Z,12.70
2023-03-29T08:40:36.732Z,12.73
2023-03-29T08:43:18.265Z,13.08
2023-03-29T08:45:53.149Z,13.05
2023-03-29T08:48:25.777Z,13.27
2023-03-29T08:50:56.087Z,13.33
2023-03-29T08:53:26.332Z,13.31
2023-03-29T08:55:54.824Z,13.73
2023-03-29T08:58:25.566Z,13.67
2023-03-29T09:00:55.143Z,13.72
2023-03-29T09:03:26.101Z,13.48
2023-03-29T09:05:57.707Z,13.84
2023-03-29T09:08:25.920Z,14.19
2023-03-29T09:11:06.772Z,14.34
2023-03-29T09:13:40.075Z,14.28
2023-03-29T09:16:13.370Z,14.14
2023-03-29T09:18:50.458Z,14.73
2023-03-29T09:21:22.328Z,14.39
2023-03-29T09:23:58.436Z,14.89
2023-03-29T09:26:29.432Z,14.84
2023-03-29T09:29:09.647Z,15.37
2023-03-29T09:31:40.358Z,15.56
2023-03-29T09:34:13.645Z,15.94
2023-03-29T09:36:47.416Z,15.61
2023-03-29T09:39:16.320Z,14.88
2023-03-29T09:41:48.267Z,15.05
2023-03-29T09:44:30.290Z,15.50
2023-03-29T09:47:02.952Z,15.46
2023-03-29T09:49:34.581Z,15.41
2023-03-29T09:52:05.902Z,15.49
2023-03-29T09:54:33.767Z,15.94
2023-03-29T09:57:02.013Z,15.93
2023-03-29T09:59:29.741Z,15.90
2023-03-29T10:02:07.380Z,16.05
2023-03-29T10:04:36.919Z,15.47
2023-03-29T10:07:05.746Z,15.13
2023-03-29T10:09:34.165Z,15.20
2023-03-29T10:12:03.457Z,14.95
2023-03-29T10:14:34.829Z,14.75
2023-03-29T10:17:05.773Z,15.02
2023-03-29T10:19:36.736Z,15.12
2023-03-29T10:22:09.307Z,15.07
2023-03-29T10:24:37.232Z,15.04
2023-03-29T10:27:08.406Z,15.06
2023-03-29T10:29:38.464Z,15.20
2023-03-29T10:32:15.579Z,15.59
2023-03-29T10:34:46.345Z,15.94
2023-03-29T10:37:16.530Z,16.33
2023-03-29T10:39:44.388Z,15.95
2023-03-29T10:42:15.062Z,16.12
2023-03-29T10:44:42.890Z,16.22
2023-03-29T10:47:16.012Z,16.38
2023-03-29T10:49:48.054Z,16.17
2023-03-29T10:52:17.318Z,16.32
2023-03-29T10:54:45.203Z,16.58
2023-03-29T10:57:16.240Z,16.75
2023-03-29T10:59:51.164Z,16.77
2023-03-29T11:02:43.480Z,17.21
2023-03-29T11:05:32.616Z,17.21
2023-03-29T11:08:20.724Z,17.55
2023-03-29T11:10:55.225Z,17.52
2023-03-29T11:13:30.200Z,17.30
2023-03-29T11:16:06.835Z,16.86
2023-03-29T11:18:50.668Z,17.17
2023-03-29T11:21:26.079Z,17.77
2023-03-29T11:24:01.915Z,17.99
2023-03-29T11:26:35.711Z,17.75
2023-03-29T11:29:05.697Z,18.02
2023-03-29T11:31:39.132Z,16.91
2023-03-29T11:34:16.412Z,17.29
2023-03-29T11:36:50.683Z,17.14
2023-03-29T11:39:28.012Z,17.09
2023-03-29T11:41:58.301Z,16.73
2023-03-29T11:44:28.350Z,16.88
2023-03-29T11:47:00.715Z,17.27
2023-03-29T11:49:31.034Z,17.68
2023-03-29T11:52:06.304Z,17.86
2023-03-29T11:54:38.311Z,17.94
2023-03-29T11:57:12.192Z,18.20
2023-03-29T11:59:44.942Z,17.69
2023-03-29T12:02:17.905Z,17.47
2023-03-29T12:04:50.035Z,17.88
2023-03-29T12:07:22.533Z,18.54
2023-03-29T12:09:52.303Z,18.82
2023-03-29T12:12:23.331Z,19.39
2023-03-29T12:14:57.348Z,19.55
2023-03-29T12:17:30.107Z,19.09
2023-03-29T12:20:05.451Z,19.30
2023-03-29T12:22:34.792Z,19.28
2023-03-29T12:25:04.655Z,18.37
2023-03-29T12:27:35.306Z,18.14
2023-03-29T12:30:23.450Z,17.57
2023-03-29T12:33:04.894Z,17.24
2023-03-29T12:35:38.607Z,17.64
2023-03-29T12:38:14.105Z,17.74
2023-03-29T12:40:44.081Z,17.64
2023-03-29T12:43:18.643Z,17.40
2023-03-29T12:45:48.613Z,17.64
2023-03-29T12:48:17.646Z,17.55
2023-03-29T12:50:48.567Z,17.46
2023-03-29T12:53:20.084Z,17.62
2023-03-29T12:55:56.024Z,18.11
2023-03-29T12:58:33.624Z,18.27
2023-03-29T13:01:07.258Z,18.41
2023-03-29T13:03:48.214Z,18.38
2023-03-29T13:06:28.924Z,18.44
2023-03-29T13:09:02.058Z,18.47
2023-03-29T13:11:34.447Z,18.25
2023-03-29T13:14:04.350Z,17.48
2023-03-29T13:16:34.656Z,17.26
2023-03-29T13:19:10.931Z,17.23
2023-03-29T13:21:45.168Z,17.94
2023-03-29T13:24:31.971Z,18.52
2023-03-29T13:27:02.506Z,17.91
2023-03-29T13:29:58.719Z,17.99
2023-03-29T13:32:51.292Z,17.85
2023-03-29T13:35:28.534Z,17.78
2023-03-29T13:38:02.246Z,17.71
2023-03-29T13:40:44.985Z,17.78
2023-03-29T13:43:23.607Z,17.68
2023-03-29T13:46:24.116Z,17.90
2023-03-29T13:49:05.392Z,18.23
2023-03-29T13:51:36.243Z,18.36
2023-03-29T13:54:09.058Z,18.26
2023-03-29T13:56:41.622Z,18.40
2023-03-29T13:59:13.615Z,18.18
2023-03-29T14:01:45.966Z,17.96
2023-03-29T14:04:17.386Z,17.40
2023-03-29T14:06:51.077Z,17.35
2023-03-29T14:09:19.375Z,17.02
2023-03-29T14:11:48.997Z,17.11
2023-03-29T14:14:17.786Z,16.80
2023-03-29T14:16:45.637Z,16.43
2023-03-29T14:19:15.757Z,16.32
2023-03-29T14:21:43.882Z,16.25
2023-03-29T14:24:13.272Z,16.17
2023-03-29T14:26:44.910Z,16.32
2023-03-29T14:29:13.993Z,16.11
2023-03-29T14:31:43.437Z,16.11
2023-03-29T14:34:15.329Z,16.06
2023-03-29T14:36:44.874Z,16.45
2023-03-29T14:39:16.406Z,16.91
2023-03-29T14:41:49.789Z,16.80
2023-03-29T14:44:19.776Z,16.69
2023-03-29T14:46:48.024Z,16.82
2023-03-29T14:49:17.260Z,17.01
2023-03-29T14:51:45.256Z,17.42
2023-03-29T14:54:19.387Z,17.13
2023-03-29T14:56:48.016Z,17.00
2023-03-29T14:59:27.103Z,16.84
2023-03-29T15:01:55.146Z,16.95
2023-03-29T15:04:22.803Z,16.97
2023-03-29T15:06:52.410Z,17.17
2023-03-29T15:09:28.627Z,17.32
2023-03-29T15:11:57.735Z,17.06
2023-03-29T15:14:28.704Z,17.18
2023-03-29T15:17:01.702Z,16.91
2023-03-29T15:19:29.478Z,17.03
2023-03-29T15:21:57.173Z,17.19
2023-03-29T15:24:30.388Z,17.42
2023-03-29T15:27:03.359Z,17.71
2023-03-29T15:29:41.853Z,17.60
2023-03-29T15:32:10.383Z,17.45
2023-03-29T15:34:39.068Z,17.43
2023-03-29T15:37:08.105Z,17.42
2023-03-29T15:39:36.027Z,17.62
2023-03-29T15:42:03.837Z,17.22
2023-03-29T15:44:35.272Z,17.03
2023-03-29T15:47:04.423Z,16.67
2023-03-29T15:49:32.317Z,16.33
2023-03-29T15:51:59.951Z,16.60
2023-03-29T15:54:29.105Z,16.57
2023-03-29T15:57:01.010Z,16.73
2023-03-29T15:59:28.907Z,16.83
2023-03-29T16:01:58.210Z,16.61
2023-03-29T16:04:27.610Z,16.48
2023-03-29T16:06:56.214Z,16.36
2023-03-29T16:09:25.659Z,16.56
2023-03-29T16:11:53.302Z,16.56
2023-03-29T16:14:23.145Z,16.61
2023-03-29T16:16:50.982Z,16.39
2023-03-29T16:19:19.509Z,16.64
2023-03-29T16:21:49.188Z,16.37
2023-03-29T16:24:19.555Z,16.58
2023-03-29T16:26:47.840Z,16.27
2023-03-29T16:29:17.325Z,16.29
2023-03-29T16:31:45.535Z,16.46
2023-03-29T16:34:13.997Z,16.47
2023-03-29T16:36:43.527Z,16.56
2023-03-29T16:39:13.406Z,16.58
2023-03-29T16:41:41.796Z,16.48
2023-03-29T16:44:14.266Z,16.48
2023-03-29T16:46:42.164Z,16.57
2023-03-29T16:49:13.916Z,16.54
2023-03-29T16:51:41.692Z,16.44
2023-03-29T16:54:09.572Z,16.36
2023-03-29T16:56:38.733Z,16.26
2023-03-29T16:59:06.438Z,16.17
2023-03-29T17:01:34.186Z,15.95
2023-03-29T17:04:01.979Z,15.97
2023-03-29T17:06:31.826Z,15.94
2023-03-29T17:09:00.674Z,15.99
2023-03-29T17:11:29.065Z,15.99
2023-03-29T17:13:58.418Z,16.07
2023-03-29T17:16:28.868Z,15.90
2023-03-29T17:18:58.473Z,15.84
2023-03-29T17:21:26.466Z,15.83
2023-03-29T17:23:54.177Z,15.90
2023-03-29T17:26:21.885Z,15.91
2023-03-29T17:28:49.600Z,15.85
2023-03-29T17:31:19.420Z,15.82
2023-03-29T17:33:47.300Z,15.70
2023-03-29T17:36:15.136Z,15.67
2023-03-29T17:38:43.066Z,15.71
2023-03-29T17:41:11.045Z,15.58
2023-03-29T17:43:38.795Z,15.64
2023-03-29T17:46:07.060Z,15.38
2023-03-29T17:48:36.094Z,15.40
2023-03-29T17:51:03.876Z,15.45
2023-03-29T17:53:31.558Z,15.28
2023-03-29T17:55:59.259Z,15.08
2023-03-29T17:58:27.118Z,15.10
2023-03-29T18:00:54.857Z,15.17
2023-03-29T18:03:22.728Z,15.14
2023-03-29T18:05:51.842Z,14.90
2023-03-29T18:08:19.603Z,15.06
2023-03-29T18:10:47.329Z,15.09
2023-03-29T18:13:15.730Z,15.11
2023-03-29T18:15:45.077Z,14.94
2023-03-29T18:18:12.843Z,15.00
2023-03-29T18:20:40.629Z,14.92
2023-03-29T18:23:09.720Z,14.95
2023-03-29T18:25:38.617Z,15.05
2023-03-29T18:28:06.290Z,15.33
2023-03-29T18:30:34.038Z,15.36
2023-03-29T18:33:01.873Z,15.45
2023-03-29T18:35:29.605Z,15.26
2023-03-29T18:37:57.358Z,15.38
2023-03-29T18:40:27.626Z,15.23
2023-03-29T18:42:55.422Z,15.35
2023-03-29T18:45:23.265Z,15.51
2023-03-29T18:47:52.393Z,15.55
2023-03-29T18:50:20.201Z,15.38
2023-03-29T18:52:47.856Z,15.38
2023-03-29T18:55:15.846Z,15.32
2023-03-29T18:57:44.904Z,15.47
2023-03-29T19:00:13.314Z,15.33
2023-03-29T19:02:41.451Z,15.44
2023-03-29T19:05:09.713Z,15.33
2023-03-29T19:07:37.440Z,15.50
2023-03-29T19:10:06.679Z,15.49
2023-03-29T19:12:34.434Z,15.30
2023-03-29T19:15:03.701Z,15.29
2023-03-29T19:17:31.444Z,15.34
2023-03-29T19:19:59.292Z,15.00
2023-03-29T19:22:26.978Z,15.15
2023-03-29T19:24:54.734Z,15.08
2023-03-29T19:27:22.456Z,15.10
2023-03-29T19:29:50.788Z,15.18
2023-03-29T19:32:19.837Z,14.94
2023-03-29T19:34:47.703Z,15.29
2023-03-29T19:37:17.422Z,15.23
2023-03-29T19:39:45.492Z,15.36
2023-03-29T19:42:13.237Z,15.28
2023-03-29T19:44:40.937Z,15.19
2023-03-29T19:47:08.619Z,15.23
2023-03-29T19:49:38.253Z,15.34
2023-03-29T19:52:06.308Z,15.07
2023-03-29T19:54:34.085Z,15.37
2023-03-29T19:57:02.728Z,15.30
2023-03-29T19:59:31.460Z,15.50
2023-03-29T20:01:59.365Z,15.05
2023-03-29T20:04:28.838Z,14.75
2023-03-29T20:06:58.497Z,15.00
2023-03-29T20:09:26.145Z,15.32
2023-03-29T20:11:53.793Z,14.95
2023-03-29T20:14:21.539Z,14.84
2023-03-29T20:16:50.706Z,15.20
2023-03-29T20:19:18.707Z,15.10
2023-03-29T20:21:46.344Z,15.04
2023-03-29T20:24:15.607Z,14.71
2023-03-29T20:26:43.264Z,14.97
2023-03-29T20:29:11.024Z,14.37
2023-03-29T20:31:38.785Z,14.58
2023-03-29T20:34:06.501Z,14.57
2023-03-29T20:36:34.219Z,14.71
2023-03-29T20:39:01.924Z,14.52
2023-03-29T20:41:31.423Z,14.43
2023-03-29T20:44:00.112Z,14.40
2023-03-29T20:46:33.434Z,14.42
2023-03-29T20:49:01.681Z,14.20
2023-03-29T20:51:30.431Z,14.31
2023-03-29T20:54:02.803Z,14.25
2023-03-29T20:56:33.300Z,14.30
2023-03-29T20:59:00.986Z,14.03
2023-03-29T21:01:29.621Z,14.08
2023-03-29T21:03:57.543Z,14.13
2023-03-29T21:06:25.535Z,14.08
2023-03-29T21:08:53.655Z,13.96
2023-03-29T21:11:21.960Z,13.95
2023-03-29T21:13:52.786Z,13.89
2023-03-29T21:16:20.650Z,13.88
2023-03-29T21:18:48.424Z,13.97
2023-03-29T21:21:16.349Z,13.93
2023-03-29T21:23:44.136Z,13.92
2023-03-29T21:26:12.002Z,13.86
2023-03-29T21:28:40.956Z,13.73
2023-03-29T21:31:10.342Z,13.72
2023-03-29T21:33:38.079Z,13.81
2023-03-29T21:36:06.419Z,13.68
2023-03-29T21:38:34.176Z,13.61
2023-03-29T21:41:02.451Z,13.73
2023-03-29T21:43:30.416Z,13.68
2023-03-29T21:45:58.062Z,13.68
2023-03-29T21:48:27.227Z,13.78
2023-03-29T21:50:54.959Z,13.80
2023-03-29T21:53:22.701Z,13.81
2023-03-29T21:55:50.523Z,13.82
2023-03-29T21:58:19.254Z,13.87
2023-03-29T22:00:47.939Z,13.86
2023-03-29T22:03:16.434Z,13.82
2023-03-29T22:05:56.421Z,13.98
2023-03-29T22:08:26.349Z,13.92
2023-03-29T22:10:56.935Z,14.00
2023-03-29T22:13:26.162Z,14.07
2023-03-29T22:15:58.646Z,14.12
2023-03-29T22:18:27.999Z,14.18
2023-03-29T22:20:57.355Z,14.50
2023-03-29T22:23:25.757Z,14.60
2023-03-29T22:25:53.487Z,14.71
2023-03-29T22:28:21.150Z,14.90
2023-03-29T22:30:48.857Z,15.00
2023-03-29T22:33:16.591Z,15.06
2023-03-29T22:35:44.380Z,15.10
2023-03-29T22:38:13.430Z,15.12
2023-03-29T22:40:41.296Z,15.20
2023-03-29T22:43:08.951Z,15.23
2023-03-29T22:45:37.278Z,15.30
2023-03-29T22:48:05.319Z,15.28
2023-03-29T22:50:33.082Z,15.38
2023-03-29T22:53:00.866Z,15.41
2023-03-29T22:55:29.947Z,15.32
2023-03-29T22:57:57.608Z,15.30
2023-03-29T23:00:25.234Z,15.25
2023-03-29T23:02:52.941Z,15.30
2023-03-29T23:05:20.680Z,15.08
2023-03-29T23:07:48.375Z,15.33
2023-03-29T23:10:16.778Z,15.22
2023-03-29T23:12:45.839Z,15.15
2023-03-29T23:15:13.720Z,15.30
2023-03-29T23:17:41.962Z,15.20
2023-03-29T23:20:11.282Z,15.33
2023-03-29T23:22:39.686Z,15.42
2023-03-29T23:25:08.490Z,15.48
2023-03-29T23:27:36.182Z,15.36
2023-03-29T23:30:07.538Z,15.40
2023-03-29T23:32:35.295Z,15.33
2023-03-29T23:35:04.480Z,15.60
2023-03-29T23:37:32.160Z,15.65
2023-03-29T23:39:59.860Z,15.71
2023-03-29T23:42:27.629Z,15.95
2023-03-29T23:44:55.901Z,15.66
2023-03-29T23:47:24.990Z,15.85
2023-03-29T23:49:53.200Z,15.82
2023-03-29T23:52:21.008Z,15.99
2023-03-29T23:54:48.634Z,15.70
2023-03-29T23:57:16.369Z,15.71
2023-03-29T23:59:44.074Z,15.66
